sensor_id;sensor_type;location;lat;lon;timestamp;temperature;humidity
4725;DHT22;2376;53.544;10.226;2023-05-14T00:00:49;13.30;99.90
4725;DHT22;2376;53.544;10.226;2023-05-14T00:03:16;13.50;99.90
4725;DHT22;2376;53.544;10.226;2023-05-14T00:05:43;13.40;99.90
4725;DHT22;2376;53.544;10.226;2023-05-14T00:08:09;13.40;99.90
4725;DHT22;2376;53.544;10.226;2023-05-14T00:10:37;13.40;99.90
4725;DHT22;2376;53.544;10.226;2023-05-14T00:13:04;13.30;99.90
4725;DHT22;2376;53.544;10.226;2023-05-14T00:15:30;13.30;99.90
4725;DHT22;2376;53.544;10.226;2023-05-14T00:17:57;13.30;99.90
4725;DHT22;2376;53.544;10.226;2023-05-14T00:20:24;13.40;99.90
4725;DHT22;2376;53.544;10.226;2023-05-14T00:22:50;13.50;99.90
4725;DHT22;2376;53.544;10.226;2023-05-14T00:25:17;13.30;99.90
4725;DHT22;2376;53.544;10.226;2023-05-14T00:27:45;13.30;99.90
4725;DHT22;2376;53.544;10.226;2023-05-14T00:30:12;13.30;99.90
4725;DHT22;2376;53.544;10.226;2023-05-14T00:32:38;13.10;99.90
4725;DHT22;2376;53.544;10.226;2023-05-14T00:35:05;13.10;99.90
4725;DHT22;2376;53.544;10.226;2023-05-14T00:37:32;13.00;99.90
4725;DHT22;2376;53.544;10.226;2023-05-14T00:39:59;12.90;99.90
4725;DHT22;2376;53.544;10.226;2023-05-14T00:42:25;12.40;99.90
4725;DHT22;2376;53.544;10.226;2023-05-14T00:44:53;12.20;99.90
4725;DHT22;2376;53.544;10.226;2023-05-14T00:47:20;12.20;99.90
4725;DHT22;2376;53.544;10.226;2023-05-14T00:49:47;12.00;99.90
4725;DHT22;2376;53.544;10.226;2023-05-14T00:52:14;12.00;99.90
4725;DHT22;2376;53.544;10.226;2023-05-14T00:54:41;12.10;99.90
4725;DHT22;2376;53.544;10.226;2023-05-14T00:57:08;12.20;99.90
4725;DHT22;2376;53.544;10.226;2023-05-14T00:59:35;12.30;99.90
4725;DHT22;2376;53.544;10.226;2023-05-14T01:02:03;12.40;99.90
4725;DHT22;2376;53.544;10.226;2023-05-14T01:04:30;12.50;99.90
4725;DHT22;2376;53.544;10.226;2023-05-14T01:07:11;12.60;99.90
4725;DHT22;2376;53.544;10.226;2023-05-14T01:09:43;12.60;99.90
4725;DHT22;2376;53.544;10.226;2023-05-14T01:12:18;12.60;99.90
4725;DHT22;2376;53.544;10.226;2023-05-14T01:14:53;12.60;99.90
4725;DHT22;2376;53.544;10.226;2023-05-14T01:17:25;12.60;99.90
4725;DHT22;2376;53.544;10.226;2023-05-14T01:19:54;12.60;99.90
4725;DHT22;2376;53.544;10.226;2023-05-14T01:22:23;12.60;99.90
4725;DHT22;2376;53.544;10.226;2023-05-14T01:24:49;12.60;99.90
4725;DHT22;2376;53.544;10.226;2023-05-14T01:27:21;12.50;99.90
4725;DHT22;2376;53.544;10.226;2023-05-14T01:29:54;12.60;99.90
4725;DHT22;2376;53.544;10.226;2023-05-14T01:32:24;12.60;99.90
4725;DHT22;2376;53.544;10.226;2023-05-14T01:34:51;12.60;99.90
4725;DHT22;2376;53.544;10.226;2023-05-14T01:37:19;12.60;99.90
4725;DHT22;2376;53.544;10.226;2023-05-14T01:39:48;12.50;99.90
4725;DHT22;2376;53.544;10.226;2023-05-14T01:42:15;12.50;99.90
4725;DHT22;2376;53.544;10.226;2023-05-14T01:44:42;12.50;99.90
4725;DHT22;2376;53.544;10.226;2023-05-14T01:47:09;12.50;99.90
4725;DHT22;2376;53.544;10.226;2023-05-14T01:49:35;12.40;99.90
4725;DHT22;2376;53.544;10.226;2023-05-14T01:52:02;12.40;99.90
4725;DHT22;2376;53.544;10.226;2023-05-14T01:54:29;12.30;99.90
4725;DHT22;2376;53.544;10.226;2023-05-14T01:56:57;12.30;99.90
4725;DHT22;2376;53.544;10.226;2023-05-14T01:59:23;12.40;99.90
4725;DHT22;2376;53.544;10.226;2023-05-14T02:01:50;12.40;99.90
4725;DHT22;2376;53.544;10.226;2023-05-14T02:04:17;12.30;99.90
4725;DHT22;2376;53.544;10.226;2023-05-14T02:06:45;12.20;99.90
4725;DHT22;2376;53.544;10.226;2023-05-14T02:09:11;12.20;99.90
4725;DHT22;2376;53.544;10.226;2023-05-14T02:11:38;12.10;99.90
4725;DHT22;2376;53.544;10.226;2023-05-14T02:14:06;12.10;99.90
4725;DHT22;2376;53.544;10.226;2023-05-14T02:16:33;12.10;99.90
4725;DHT22;2376;53.544;10.226;2023-05-14T02:18:59;12.10;99.90
4725;DHT22;2376;53.544;10.226;2023-05-14T02:21:26;12.00;99.90
4725;DHT22;2376;53.544;10.226;2023-05-14T02:23:53;12.00;99.90
4725;DHT22;2376;53.544;10.226;2023-05-14T02:26:20;12.00;99.90
4725;DHT22;2376;53.544;10.226;2023-05-14T02:28:47;11.80;99.90
4725;DHT22;2376;53.544;10.226;2023-05-14T02:31:15;12.00;99.90
4725;DHT22;2376;53.544;10.226;2023-05-14T02:33:43;11.90;99.90
4725;DHT22;2376;53.544;10.226;2023-05-14T02:36:10;11.80;99.90
4725;DHT22;2376;53.544;10.226;2023-05-14T02:38:37;11.80;99.90
4725;DHT22;2376;53.544;10.226;2023-05-14T02:41:03;11.90;99.90
4725;DHT22;2376;53.544;10.226;2023-05-14T02:43:30;11.90;99.90
4725;DHT22;2376;53.544;10.226;2023-05-14T02:45:57;11.90;99.90
4725;DHT22;2376;53.544;10.226;2023-05-14T02:48:24;11.90;99.90
4725;DHT22;2376;53.544;10.226;2023-05-14T02:50:51;11.90;99.90
4725;DHT22;2376;53.544;10.226;2023-05-14T02:53:18;12.00;99.90
4725;DHT22;2376;53.544;10.226;2023-05-14T02:55:44;12.00;99.90
4725;DHT22;2376;53.544;10.226;2023-05-14T02:58:11;12.00;99.90
4725;DHT22;2376;53.544;10.226;2023-05-14T03:00:38;12.00;99.90
4725;DHT22;2376;53.544;10.226;2023-05-14T03:03:04;12.00;99.90
4725;DHT22;2376;53.544;10.226;2023-05-14T03:05:32;11.90;99.90
4725;DHT22;2376;53.544;10.226;2023-05-14T03:07:59;11.80;99.90
4725;DHT22;2376;53.544;10.226;2023-05-14T03:10:26;11.30;99.90
4725;DHT22;2376;53.544;10.226;2023-05-14T03:12:52;11.30;99.90
4725;DHT22;2376;53.544;10.226;2023-05-14T03:15:19;11.20;99.90
4725;DHT22;2376;53.544;10.226;2023-05-14T03:17:46;11.10;99.90
4725;DHT22;2376;53.544;10.226;2023-05-14T03:20:13;11.10;99.90
4725;DHT22;2376;53.544;10.226;2023-05-14T03:22:41;10.90;99.90
4725;DHT22;2376;53.544;10.226;2023-05-14T03:25:08;10.90;99.90
4725;DHT22;2376;53.544;10.226;2023-05-14T03:27:35;10.90;99.90
4725;DHT22;2376;53.544;10.226;2023-05-14T03:30:02;11.00;99.90
4725;DHT22;2376;53.544;10.226;2023-05-14T03:32:29;11.00;99.90
4725;DHT22;2376;53.544;10.226;2023-05-14T03:34:56;11.00;99.90
4725;DHT22;2376;53.544;10.226;2023-05-14T03:37:23;11.10;99.90
4725;DHT22;2376;53.544;10.226;2023-05-14T03:39:51;11.10;99.90
4725;DHT22;2376;53.544;10.226;2023-05-14T03:42:18;11.00;99.90
4725;DHT22;2376;53.544;10.226;2023-05-14T03:44:45;11.00;99.90
4725;DHT22;2376;53.544;10.226;2023-05-14T03:47:11;11.10;99.90
4725;DHT22;2376;53.544;10.226;2023-05-14T03:49:38;11.20;99.90
4725;DHT22;2376;53.544;10.226;2023-05-14T03:52:05;11.20;99.90
4725;DHT22;2376;53.544;10.226;2023-05-14T03:54:31;11.20;99.90
4725;DHT22;2376;53.544;10.226;2023-05-14T03:56:59;11.10;99.90
4725;DHT22;2376;53.544;10.226;2023-05-14T03:59:27;11.10;99.90
4725;DHT22;2376;53.544;10.226;2023-05-14T04:01:53;11.20;99.90
4725;DHT22;2376;53.544;10.226;2023-05-14T04:04:20;11.20;99.90
4725;DHT22;2376;53.544;10.226;2023-05-14T04:06:47;11.30;99.90
4725;DHT22;2376;53.544;10.226;2023-05-14T04:09:13;11.40;99.90
4725;DHT22;2376;53.544;10.226;2023-05-14T04:11:40;11.40;99.90
4725;DHT22;2376;53.544;10.226;2023-05-14T04:14:08;11.50;99.90
4725;DHT22;2376;53.544;10.226;2023-05-14T04:16:35;11.60;99.90
4725;DHT22;2376;53.544;10.226;2023-05-14T04:19:02;11.60;99.90
4725;DHT22;2376;53.544;10.226;2023-05-14T04:21:29;11.60;99.90
4725;DHT22;2376;53.544;10.226;2023-05-14T04:23:55;11.60;99.90
4725;DHT22;2376;53.544;10.226;2023-05-14T04:26:22;11.70;99.90
4725;DHT22;2376;53.544;10.226;2023-05-14T04:28:49;11.70;99.90
4725;DHT22;2376;53.544;10.226;2023-05-14T04:31:17;11.80;99.90
4725;DHT22;2376;53.544;10.226;2023-05-14T04:33:43;11.80;99.90
4725;DHT22;2376;53.544;10.226;2023-05-14T04:36:10;11.80;99.90
4725;DHT22;2376;53.544;10.226;2023-05-14T04:38:37;11.90;99.90
4725;DHT22;2376;53.544;10.226;2023-05-14T04:41:04;11.90;99.90
4725;DHT22;2376;53.544;10.226;2023-05-14T04:43:31;11.90;99.90
4725;DHT22;2376;53.544;10.226;2023-05-14T04:45:58;11.90;99.90
4725;DHT22;2376;53.544;10.226;2023-05-14T04:48:26;11.90;99.90
4725;DHT22;2376;53.544;10.226;2023-05-14T04:50:53;12.00;99.90
4725;DHT22;2376;53.544;10.226;2023-05-14T04:53:19;12.00;99.90
4725;DHT22;2376;53.544;10.226;2023-05-14T04:55:46;12.10;99.90
4725;DHT22;2376;53.544;10.226;2023-05-14T04:58:13;12.20;99.90
4725;DHT22;2376;53.544;10.226;2023-05-14T05:00:39;12.20;99.90
4725;DHT22;2376;53.544;10.226;2023-05-14T05:03:06;12.30;99.90
4725;DHT22;2376;53.544;10.226;2023-05-14T05:05:34;12.30;99.90
4725;DHT22;2376;53.544;10.226;2023-05-14T05:08:01;12.40;99.90
4725;DHT22;2376;53.544;10.226;2023-05-14T05:10:27;12.40;99.90
4725;DHT22;2376;53.544;10.226;2023-05-14T05:12:54;12.40;99.90
4725;DHT22;2376;53.544;10.226;2023-05-14T05:15:20;12.40;99.90
4725;DHT22;2376;53.544;10.226;2023-05-14T05:17:47;12.50;99.90
4725;DHT22;2376;53.544;10.226;2023-05-14T05:20:14;12.60;99.90
4725;DHT22;2376;53.544;10.226;2023-05-14T05:22:42;12.60;99.90
4725;DHT22;2376;53.544;10.226;2023-05-14T05:25:08;12.60;99.90
4725;DHT22;2376;53.544;10.226;2023-05-14T05:27:37;12.60;99.90
4725;DHT22;2376;53.544;10.226;2023-05-14T05:30:04;12.70;99.90
4725;DHT22;2376;53.544;10.226;2023-05-14T05:32:31;12.80;99.90
4725;DHT22;2376;53.544;10.226;2023-05-14T05:34:58;12.90;99.90
4725;DHT22;2376;53.544;10.226;2023-05-14T05:37:25;12.90;99.90
4725;DHT22;2376;53.544;10.226;2023-05-14T05:39:53;13.00;99.90
4725;DHT22;2376;53.544;10.226;2023-05-14T05:42:19;13.00;99.90
4725;DHT22;2376;53.544;10.226;2023-05-14T05:44:46;13.10;99.90
4725;DHT22;2376;53.544;10.226;2023-05-14T05:47:13;13.20;99.90
4725;DHT22;2376;53.544;10.226;2023-05-14T05:49:41;13.20;99.90
4725;DHT22;2376;53.544;10.226;2023-05-14T05:52:08;13.20;99.90
4725;DHT22;2376;53.544;10.226;2023-05-14T05:54:35;13.20;99.90
4725;DHT22;2376;53.544;10.226;2023-05-14T05:57:05;13.30;99.90
4725;DHT22;2376;53.544;10.226;2023-05-14T05:59:32;13.40;99.90
4725;DHT22;2376;53.544;10.226;2023-05-14T06:01:58;13.50;99.90
4725;DHT22;2376;53.544;10.226;2023-05-14T06:04:25;13.60;99.90
4725;DHT22;2376;53.544;10.226;2023-05-14T06:06:52;13.60;99.90
4725;DHT22;2376;53.544;10.226;2023-05-14T06:09:19;13.70;99.90
4725;DHT22;2376;53.544;10.226;2023-05-14T06:11:45;13.70;99.90
4725;DHT22;2376;53.544;10.226;2023-05-14T06:14:13;13.80;99.90
4725;DHT22;2376;53.544;10.226;2023-05-14T06:16:40;13.80;99.90
4725;DHT22;2376;53.544;10.226;2023-05-14T06:19:06;13.90;99.90
4725;DHT22;2376;53.544;10.226;2023-05-14T06:21:34;14.00;99.90
4725;DHT22;2376;53.544;10.226;2023-05-14T06:24:01;14.10;99.90
4725;DHT22;2376;53.544;10.226;2023-05-14T06:26:28;14.20;99.90
4725;DHT22;2376;53.544;10.226;2023-05-14T06:28:55;14.20;99.90
4725;DHT22;2376;53.544;10.226;2023-05-14T06:31:23;14.30;99.90
4725;DHT22;2376;53.544;10.226;2023-05-14T06:33:50;14.40;99.90
4725;DHT22;2376;53.544;10.226;2023-05-14T06:36:17;14.50;99.90
4725;DHT22;2376;53.544;10.226;2023-05-14T06:38:44;14.60;99.90
4725;DHT22;2376;53.544;10.226;2023-05-14T06:41:10;14.80;99.90
4725;DHT22;2376;53.544;10.226;2023-05-14T06:43:37;14.80;99.90
4725;DHT22;2376;53.544;10.226;2023-05-14T06:46:04;14.90;99.90
4725;DHT22;2376;53.544;10.226;2023-05-14T06:48:32;14.90;99.90
4725;DHT22;2376;53.544;10.226;2023-05-14T06:50:58;15.10;99.90
4725;DHT22;2376;53.544;10.226;2023-05-14T06:53:25;15.20;99.90
4725;DHT22;2376;53.544;10.226;2023-05-14T06:55:52;15.40;99.90
4725;DHT22;2376;53.544;10.226;2023-05-14T06:58:18;15.40;99.90
4725;DHT22;2376;53.544;10.226;2023-05-14T07:00:45;15.40;99.90
4725;DHT22;2376;53.544;10.226;2023-05-14T07:03:12;15.60;99.90
4725;DHT22;2376;53.544;10.226;2023-05-14T07:05:40;15.70;99.90
4725;DHT22;2376;53.544;10.226;2023-05-14T07:08:06;15.70;99.90
4725;DHT22;2376;53.544;10.226;2023-05-14T07:10:33;15.90;99.90
4725;DHT22;2376;53.544;10.226;2023-05-14T07:13:00;16.00;99.90
4725;DHT22;2376;53.544;10.226;2023-05-14T07:15:27;16.20;99.90
4725;DHT22;2376;53.544;10.226;2023-05-14T07:17:54;16.30;99.90
4725;DHT22;2376;53.544;10.226;2023-05-14T07:20:21;16.50;99.90
4725;DHT22;2376;53.544;10.226;2023-05-14T07:22:50;16.40;99.90
4725;DHT22;2376;53.544;10.226;2023-05-14T07:25:16;16.50;99.90
4725;DHT22;2376;53.544;10.226;2023-05-14T07:27:43;16.50;99.90
4725;DHT22;2376;53.544;10.226;2023-05-14T07:30:10;16.70;99.90
4725;DHT22;2376;53.544;10.226;2023-05-14T07:32:37;16.70;99.90
4725;DHT22;2376;53.544;10.226;2023-05-14T07:35:04;16.90;99.90
4725;DHT22;2376;53.544;10.226;2023-05-14T07:37:31;17.10;99.90
4725;DHT22;2376;53.544;10.226;2023-05-14T07:39:59;17.20;99.90
4725;DHT22;2376;53.544;10.226;2023-05-14T07:42:26;17.40;99.90
4725;DHT22;2376;53.544;10.226;2023-05-14T07:44:53;17.60;99.90
4725;DHT22;2376;53.544;10.226;2023-05-14T07:47:19;17.80;99.90
4725;DHT22;2376;53.544;10.226;2023-05-14T07:49:46;17.80;99.90
4725;DHT22;2376;53.544;10.226;2023-05-14T07:52:13;17.80;99.90
4725;DHT22;2376;53.544;10.226;2023-05-14T07:54:39;17.90;99.90
4725;DHT22;2376;53.544;10.226;2023-05-14T07:57:07;18.00;99.90
4725;DHT22;2376;53.544;10.226;2023-05-14T07:59:34;18.20;97.80
4725;DHT22;2376;53.544;10.226;2023-05-14T08:02:01;18.40;98.20
4725;DHT22;2376;53.544;10.226;2023-05-14T08:04:27;18.50;93.80
4725;DHT22;2376;53.544;10.226;2023-05-14T08:06:54;18.60;93.80
4725;DHT22;2376;53.544;10.226;2023-05-14T08:09:22;18.70;93.50
4725;DHT22;2376;53.544;10.226;2023-05-14T08:11:49;18.90;91.20
4725;DHT22;2376;53.544;10.226;2023-05-14T08:14:17;19.00;90.80
4725;DHT22;2376;53.544;10.226;2023-05-14T08:16:44;19.10;88.90
4725;DHT22;2376;53.544;10.226;2023-05-14T08:19:11;19.20;85.80
4725;DHT22;2376;53.544;10.226;2023-05-14T08:21:38;19.10;82.50
4725;DHT22;2376;53.544;10.226;2023-05-14T08:24:05;19.20;80.00
4725;DHT22;2376;53.544;10.226;2023-05-14T08:26:32;19.50;81.70
4725;DHT22;2376;53.544;10.226;2023-05-14T08:28:58;19.40;81.00
4725;DHT22;2376;53.544;10.226;2023-05-14T08:31:27;19.50;80.80
4725;DHT22;2376;53.544;10.226;2023-05-14T08:33:53;19.50;78.80
4725;DHT22;2376;53.544;10.226;2023-05-14T08:36:20;19.70;79.50
4725;DHT22;2376;53.544;10.226;2023-05-14T08:38:46;19.90;78.70
4725;DHT22;2376;53.544;10.226;2023-05-14T08:41:15;20.20;78.90
4725;DHT22;2376;53.544;10.226;2023-05-14T08:43:49;20.20;75.00
4725;DHT22;2376;53.544;10.226;2023-05-14T08:46:23;20.10;73.20
4725;DHT22;2376;53.544;10.226;2023-05-14T08:48:55;20.20;72.40
4725;DHT22;2376;53.544;10.226;2023-05-14T08:51:23;20.50;73.50
4725;DHT22;2376;53.544;10.226;2023-05-14T08:53:50;20.50;71.30
4725;DHT22;2376;53.544;10.226;2023-05-14T08:56:17;20.80;71.40
4725;DHT22;2376;53.544;10.226;2023-05-14T08:58:44;20.70;68.70
4725;DHT22;2376;53.544;10.226;2023-05-14T09:01:11;20.60;65.80
4725;DHT22;2376;53.544;10.226;2023-05-14T09:03:38;20.70;66.80
4725;DHT22;2376;53.544;10.226;2023-05-14T09:06:08;20.60;67.10
4725;DHT22;2376;53.544;10.226;2023-05-14T09:08:34;20.70;64.30
4725;DHT22;2376;53.544;10.226;2023-05-14T09:11:03;20.70;63.10
4725;DHT22;2376;53.544;10.226;2023-05-14T09:13:29;20.70;64.00
4725;DHT22;2376;53.544;10.226;2023-05-14T09:15:56;21.00;64.80
4725;DHT22;2376;53.544;10.226;2023-05-14T09:18:24;21.30;65.60
4725;DHT22;2376;53.544;10.226;2023-05-14T09:20:50;21.40;62.90
4725;DHT22;2376;53.544;10.226;2023-05-14T09:23:18;21.20;61.40
4725;DHT22;2376;53.544;10.226;2023-05-14T09:25:46;21.30;61.30
4725;DHT22;2376;53.544;10.226;2023-05-14T09:28:16;21.60;59.60
4725;DHT22;2376;53.544;10.226;2023-05-14T09:30:46;21.90;62.20
4725;DHT22;2376;53.544;10.226;2023-05-14T09:33:25;21.70;59.30
4725;DHT22;2376;53.544;10.226;2023-05-14T09:35:55;21.70;59.40
4725;DHT22;2376;53.544;10.226;2023-05-14T09:38:27;21.50;60.60
4725;DHT22;2376;53.544;10.226;2023-05-14T09:40:54;22.00;61.70
4725;DHT22;2376;53.544;10.226;2023-05-14T09:43:21;22.30;60.30
4725;DHT22;2376;53.544;10.226;2023-05-14T09:45:47;22.50;58.70
4725;DHT22;2376;53.544;10.226;2023-05-14T09:48:14;22.60;58.40
4725;DHT22;2376;53.544;10.226;2023-05-14T09:50:42;22.80;59.60
4725;DHT22;2376;53.544;10.226;2023-05-14T09:53:09;22.80;56.40
4725;DHT22;2376;53.544;10.226;2023-05-14T09:55:37;22.50;55.60
4725;DHT22;2376;53.544;10.226;2023-05-14T09:58:04;22.30;55.40
4725;DHT22;2376;53.544;10.226;2023-05-14T10:00:32;22.40;57.20
4725;DHT22;2376;53.544;10.226;2023-05-14T10:03:04;22.70;56.90
4725;DHT22;2376;53.544;10.226;2023-05-14T10:05:32;22.80;54.70
4725;DHT22;2376;53.544;10.226;2023-05-14T10:08:04;23.10;55.30
4725;DHT22;2376;53.544;10.226;2023-05-14T10:10:32;22.90;54.70
4725;DHT22;2376;53.544;10.226;2023-05-14T10:13:03;22.90;56.30
4725;DHT22;2376;53.544;10.226;2023-05-14T10:15:36;23.00;55.30
4725;DHT22;2376;53.544;10.226;2023-05-14T10:18:08;23.00;54.50
4725;DHT22;2376;53.544;10.226;2023-05-14T10:20:36;23.00;54.50
4725;DHT22;2376;53.544;10.226;2023-05-14T10:23:04;23.00;54.60
4725;DHT22;2376;53.544;10.226;2023-05-14T10:25:32;22.90;54.80
4725;DHT22;2376;53.544;10.226;2023-05-14T10:28:00;23.20;55.20
4725;DHT22;2376;53.544;10.226;2023-05-14T10:30:27;23.70;55.10
4725;DHT22;2376;53.544;10.226;2023-05-14T10:33:07;24.10;55.00
4725;DHT22;2376;53.544;10.226;2023-05-14T10:35:51;24.30;54.30
4725;DHT22;2376;53.544;10.226;2023-05-14T10:38:21;24.40;53.10
4725;DHT22;2376;53.544;10.226;2023-05-14T10:40:48;24.40;51.60
4725;DHT22;2376;53.544;10.226;2023-05-14T10:43:16;24.30;54.40
4725;DHT22;2376;53.544;10.226;2023-05-14T10:45:44;24.00;53.50
4725;DHT22;2376;53.544;10.226;2023-05-14T10:48:11;24.10;53.00
4725;DHT22;2376;53.544;10.226;2023-05-14T10:50:38;24.10;53.60
4725;DHT22;2376;53.544;10.226;2023-05-14T10:53:04;23.90;54.20
4725;DHT22;2376;53.544;10.226;2023-05-14T10:55:37;24.20;53.90
4725;DHT22;2376;53.544;10.226;2023-05-14T10:58:04;23.80;53.30
4725;DHT22;2376;53.544;10.226;2023-05-14T11:00:34;24.00;53.60
4725;DHT22;2376;53.544;10.226;2023-05-14T11:03:03;23.80;53.30
4725;DHT22;2376;53.544;10.226;2023-05-14T11:05:31;23.10;52.60
4725;DHT22;2376;53.544;10.226;2023-05-14T11:07:58;22.80;53.20
4725;DHT22;2376;53.544;10.226;2023-05-14T11:10:26;23.00;54.30
4725;DHT22;2376;53.544;10.226;2023-05-14T11:12:55;23.20;53.70
4725;DHT22;2376;53.544;10.226;2023-05-14T11:15:24;23.60;54.70
4725;DHT22;2376;53.544;10.226;2023-05-14T11:17:54;23.90;53.10
4725;DHT22;2376;53.544;10.226;2023-05-14T11:20:20;23.90;52.40
4725;DHT22;2376;53.544;10.226;2023-05-14T11:22:48;23.60;52.10
4725;DHT22;2376;53.544;10.226;2023-05-14T11:25:15;23.70;52.70
4725;DHT22;2376;53.544;10.226;2023-05-14T11:27:44;23.40;53.50
4725;DHT22;2376;53.544;10.226;2023-05-14T11:30:13;23.10;52.80
4725;DHT22;2376;53.544;10.226;2023-05-14T11:32:40;23.20;52.50
4725;DHT22;2376;53.544;10.226;2023-05-14T11:35:08;23.50;53.60
4725;DHT22;2376;53.544;10.226;2023-05-14T11:37:35;23.60;52.90
4725;DHT22;2376;53.544;10.226;2023-05-14T11:40:06;23.50;51.60
4725;DHT22;2376;53.544;10.226;2023-05-14T11:42:33;22.70;51.90
4725;DHT22;2376;53.544;10.226;2023-05-14T11:45:01;22.80;52.90
4725;DHT22;2376;53.544;10.226;2023-05-14T11:47:28;22.70;52.90
4725;DHT22;2376;53.544;10.226;2023-05-14T11:49:55;22.70;52.00
4725;DHT22;2376;53.544;10.226;2023-05-14T11:52:23;22.50;52.20
4725;DHT22;2376;53.544;10.226;2023-05-14T11:54:49;22.40;50.90
4725;DHT22;2376;53.544;10.226;2023-05-14T11:57:18;22.50;51.80
4725;DHT22;2376;53.544;10.226;2023-05-14T11:59:46;22.50;52.60
4725;DHT22;2376;53.544;10.226;2023-05-14T12:02:14;22.50;53.10
4725;DHT22;2376;53.544;10.226;2023-05-14T12:04:43;22.60;53.40
4725;DHT22;2376;53.544;10.226;2023-05-14T12:07:10;22.80;53.30
4725;DHT22;2376;53.544;10.226;2023-05-14T12:09:41;22.70;53.30
4725;DHT22;2376;53.544;10.226;2023-05-14T12:12:13;22.90;53.70
4725;DHT22;2376;53.544;10.226;2023-05-14T12:14:41;23.20;54.70
4725;DHT22;2376;53.544;10.226;2023-05-14T12:17:12;23.40;54.60
4725;DHT22;2376;53.544;10.226;2023-05-14T12:19:40;23.50;53.60
4725;DHT22;2376;53.544;10.226;2023-05-14T12:22:07;23.60;53.60
4725;DHT22;2376;53.544;10.226;2023-05-14T12:24:34;23.60;53.50
4725;DHT22;2376;53.544;10.226;2023-05-14T12:27:02;23.60;53.00
4725;DHT22;2376;53.544;10.226;2023-05-14T12:29:29;23.50;53.50
4725;DHT22;2376;53.544;10.226;2023-05-14T12:31:56;23.60;53.50
4725;DHT22;2376;53.544;10.226;2023-05-14T12:34:23;23.70;53.50
4725;DHT22;2376;53.544;10.226;2023-05-14T12:36:49;23.90;52.90
4725;DHT22;2376;53.544;10.226;2023-05-14T12:39:16;24.20;53.90
4725;DHT22;2376;53.544;10.226;2023-05-14T12:41:43;24.30;52.70
4725;DHT22;2376;53.544;10.226;2023-05-14T12:44:11;23.80;51.50
4725;DHT22;2376;53.544;10.226;2023-05-14T12:46:38;24.10;53.10
4725;DHT22;2376;53.544;10.226;2023-05-14T12:49:04;24.20;50.70
4725;DHT22;2376;53.544;10.226;2023-05-14T12:51:32;23.60;49.70
4725;DHT22;2376;53.544;10.226;2023-05-14T12:53:59;23.10;51.30
4725;DHT22;2376;53.544;10.226;2023-05-14T12:56:26;22.50;51.80
4725;DHT22;2376;53.544;10.226;2023-05-14T12:58:54;22.30;53.50
4725;DHT22;2376;53.544;10.226;2023-05-14T13:01:22;22.20;56.00
4725;DHT22;2376;53.544;10.226;2023-05-14T13:03:50;21.90;59.70
4725;DHT22;2376;53.544;10.226;2023-05-14T13:06:16;21.80;65.20
4725;DHT22;2376;53.544;10.226;2023-05-14T13:08:43;21.70;64.20
4725;DHT22;2376;53.544;10.226;2023-05-14T13:11:10;21.60;65.80
4725;DHT22;2376;53.544;10.226;2023-05-14T13:13:36;21.60;61.70
4725;DHT22;2376;53.544;10.226;2023-05-14T13:16:03;21.70;59.10
4725;DHT22;2376;53.544;10.226;2023-05-14T13:18:32;21.70;59.30
4725;DHT22;2376;53.544;10.226;2023-05-14T13:20:58;21.80;59.20
4725;DHT22;2376;53.544;10.226;2023-05-14T13:23:25;21.80;59.90
4725;DHT22;2376;53.544;10.226;2023-05-14T13:25:51;22.10;59.00
4725;DHT22;2376;53.544;10.226;2023-05-14T13:28:18;22.00;57.70
4725;DHT22;2376;53.544;10.226;2023-05-14T13:31:02;22.10;59.20
4725;DHT22;2376;53.544;10.226;2023-05-14T13:33:29;22.30;59.80
4725;DHT22;2376;53.544;10.226;2023-05-14T13:35:57;22.20;59.40
4725;DHT22;2376;53.544;10.226;2023-05-14T13:38:23;22.10;55.70
4725;DHT22;2376;53.544;10.226;2023-05-14T13:40:50;21.90;57.70
4725;DHT22;2376;53.544;10.226;2023-05-14T13:43:17;21.70;59.90
4725;DHT22;2376;53.544;10.226;2023-05-14T13:45:43;21.70;60.00
4725;DHT22;2376;53.544;10.226;2023-05-14T13:48:10;21.80;60.60
4725;DHT22;2376;53.544;10.226;2023-05-14T13:50:37;22.10;60.40
4725;DHT22;2376;53.544;10.226;2023-05-14T13:53:04;22.20;59.60
4725;DHT22;2376;53.544;10.226;2023-05-14T13:55:31;22.00;59.60
4725;DHT22;2376;53.544;10.226;2023-05-14T13:57:58;21.90;58.10
4725;DHT22;2376;53.544;10.226;2023-05-14T14:00:25;21.80;58.20
4725;DHT22;2376;53.544;10.226;2023-05-14T14:02:51;21.90;59.70
4725;DHT22;2376;53.544;10.226;2023-05-14T14:05:18;22.10;58.20
4725;DHT22;2376;53.544;10.226;2023-05-14T14:07:45;22.40;58.20
4725;DHT22;2376;53.544;10.226;2023-05-14T14:10:13;22.50;57.70
4725;DHT22;2376;53.544;10.226;2023-05-14T14:12:40;22.40;59.50
4725;DHT22;2376;53.544;10.226;2023-05-14T14:15:07;22.50;60.60
4725;DHT22;2376;53.544;10.226;2023-05-14T14:17:34;22.50;59.20
4725;DHT22;2376;53.544;10.226;2023-05-14T14:20:02;22.40;58.10
4725;DHT22;2376;53.544;10.226;2023-05-14T14:22:30;22.30;57.70
4725;DHT22;2376;53.544;10.226;2023-05-14T14:24:56;22.30;58.10
4725;DHT22;2376;53.544;10.226;2023-05-14T14:27:24;22.30;60.00
4725;DHT22;2376;53.544;10.226;2023-05-14T14:29:51;22.30;59.10
4725;DHT22;2376;53.544;10.226;2023-05-14T14:32:18;22.50;60.80
4725;DHT22;2376;53.544;10.226;2023-05-14T14:34:44;22.60;61.30
4725;DHT22;2376;53.544;10.226;2023-05-14T14:37:11;22.90;64.30
4725;DHT22;2376;53.544;10.226;2023-05-14T14:39:37;23.10;66.00
4725;DHT22;2376;53.544;10.226;2023-05-14T14:47:01;23.10;40.10
4725;DHT22;2376;53.544;10.226;2023-05-14T14:49:27;22.90;41.00
4725;DHT22;2376;53.544;10.226;2023-05-14T14:51:55;23.00;41.10
4725;DHT22;2376;53.544;10.226;2023-05-14T14:54:22;22.80;39.00
4725;DHT22;2376;53.544;10.226;2023-05-14T14:56:48;22.90;40.30
4725;DHT22;2376;53.544;10.226;2023-05-14T14:59:16;23.00;40.30
4725;DHT22;2376;53.544;10.226;2023-05-14T15:01:44;23.10;39.30
4725;DHT22;2376;53.544;10.226;2023-05-14T15:04:11;22.90;39.20
4725;DHT22;2376;53.544;10.226;2023-05-14T15:06:38;22.90;40.10
4725;DHT22;2376;53.544;10.226;2023-05-14T15:09:04;23.20;41.30
4725;DHT22;2376;53.544;10.226;2023-05-14T15:11:32;23.30;38.60
4725;DHT22;2376;53.544;10.226;2023-05-14T15:13:58;23.40;39.40
4725;DHT22;2376;53.544;10.226;2023-05-14T15:16:25;23.60;39.00
4725;DHT22;2376;53.544;10.226;2023-05-14T15:18:53;23.70;38.10
4725;DHT22;2376;53.544;10.226;2023-05-14T15:21:20;23.90;38.70
4725;DHT22;2376;53.544;10.226;2023-05-14T15:23:46;23.70;37.60
4725;DHT22;2376;53.544;10.226;2023-05-14T15:26:13;24.00;39.90
4725;DHT22;2376;53.544;10.226;2023-05-14T15:28:40;23.90;36.80
4725;DHT22;2376;53.544;10.226;2023-05-14T15:31:07;24.00;37.50
4725;DHT22;2376;53.544;10.226;2023-05-14T15:33:34;23.90;37.00
4725;DHT22;2376;53.544;10.226;2023-05-14T15:36:03;24.10;37.50
4725;DHT22;2376;53.544;10.226;2023-05-14T15:38:30;24.30;37.30
4725;DHT22;2376;53.544;10.226;2023-05-14T15:40:57;24.30;37.00
4725;DHT22;2376;53.544;10.226;2023-05-14T15:43:23;24.30;35.70
4725;DHT22;2376;53.544;10.226;2023-05-14T15:45:50;24.40;36.20
4725;DHT22;2376;53.544;10.226;2023-05-14T15:48:17;24.40;36.20
4725;DHT22;2376;53.544;10.226;2023-05-14T15:50:43;24.10;36.10